Traveler — WDD5082 — position and weather

sailwx.info

Track history (hours):
 
Tides and Currents Weather Stations Pressure Air Temp Water Temp Dewpoint Dewpoint Depression Visibility Wind Speed Wind Dir Waves Ship Positions

Traveler

Owner: Traveler Fisheries LLC, Seattle, WA. More information available from US FCC via Universal Licensing System and Coast Guard Vessel Documentation Center.

Last reported at 2018-Jan-12 12:10 UTC. Time now 2018-Jun-22 05:36 UTC.
Position N 48°52' W 126°09'.
Warning: this ship's position is months out of date.

Length 36 m.

Type: Fishing. MMSI: 366401480.

Date/timePositionNaut miles runAvg speedWind from/ knotsBaromVisibWave heightAir tempDewpointWater temp
2018-Jan-12 12:10N 48°52' W 126°09'2 9.3
2018-Jan-12 11:58N 48°51' W 126°07'9 9.8
2018-Jan-12 11:02N 48°47' W 125°54'110.0
2018-Jan-12 10:54N 48°47' W 125°53'4 9.7
2018-Jan-12 10:30N 48°45' W 125°47'5 9.6
2018-Jan-12 10:00N 48°43' W 125°41'5 9.5
2018-Jan-12 09:30N 48°41' W 125°34'5 9.6
2018-Jan-12 09:00N 48°39' W 125°28'5 9.8
2018-Jan-12 08:29N 48°37' W 125°21'15 9.3
2018-Jan-12 06:50N 48°33' W 124°58'3 9.0
2018-Jan-12 06:29N 48°33' W 124°54'4 8.5
2018-Jan-12 05:59N 48°33' W 124°47'4 9.2
2018-Jan-12 05:30N 48°31' W 124°41'5 9.3
2018-Jan-12 05:00N 48°30' W 124°34'5 9.7
2018-Jan-12 04:30N 48°28' W 124°27'5 9.9
2018-Jan-12 04:00N 48°26' W 124°20'510.3
2018-Jan-12 03:30N 48°24' W 124°13'510.9
2018-Jan-12 03:00N 48°22' W 124°06'611.2
2018-Jan-12 02:30N 48°20' W 123°58'1310.9
2018-Jan-12 01:17N 48°17' W 123°38'413.1
2018-Jan-12 01:00N 48°16' W 123°33'611.7
2018-Jan-12 00:30N 48°15' W 123°24'611.4
2018-Jan-11 23:59N 48°14' W 123°16'611.0
2018-Jan-11 23:29N 48°13' W 123°07'510.3
2018-Jan-11 22:59N 48°13' W 122°60'19 9.7
2018-Jan-11 21:01N 48°01' W 122°37'210.1
2018-Jan-11 20:50N 47°60' W 122°35'310.4
2018-Jan-11 20:30N 47°57' W 122°32'5 9.3
2018-Jan-11 20:00N 47°53' W 122°28'5 9.4
2018-Jan-11 19:30N 47°49' W 122°26'4 9.0
2018-Jan-11 19:00N 47°44' W 122°25'4 7.4
2018-Jan-11 18:30N 47°40' W 122°25'1 1.7
2018-Jan-11 18:00N 47°40' W 122°24'1 1.4
2018-Jan-11 17:30N 47°40' W 122°23'0 0.0
2018-Jan-11 17:00N 47°40' W 122°23'0 0.0
2018-Jan-11 16:30N 47°40' W 122°23'0 0.0
2018-Jan-11 16:00N 47°40' W 122°23'0 0.0
2018-Jan-11 15:30N 47°40' W 122°23'0 0.0
2018-Jan-11 15:00N 47°40' W 122°23'0 0.0
2018-Jan-11 14:30N 47°40' W 122°23'0 0.0
2018-Jan-11 14:00N 47°40' W 122°23'0 0.0
2018-Jan-11 13:30N 47°40' W 122°23'0 0.0
2018-Jan-11 13:00N 47°40' W 122°23'0 0.0
2018-Jan-11 12:30N 47°40' W 122°23'0 0.0
2018-Jan-11 12:00N 47°40' W 122°23'0 0.0
2018-Jan-11 11:30N 47°40' W 122°23'0 0.0
2018-Jan-11 11:00N 47°40' W 122°23'0 0.0
2018-Jan-11 10:30N 47°40' W 122°23'0 0.0
2018-Jan-11 10:00N 47°40' W 122°23'0 0.0
2018-Jan-11 09:30N 47°40' W 122°23'0 0.0
2018-Jan-11 09:00N 47°40' W 122°23'0 0.0
2018-Jan-11 08:30N 47°40' W 122°23'0 0.0
2018-Jan-11 08:00N 47°40' W 122°23'0 0.0
2018-Jan-11 07:30N 47°40' W 122°23'0 0.0
2018-Jan-11 07:00N 47°40' W 122°23'0 0.0
2018-Jan-11 06:30N 47°40' W 122°23'0 0.0
2018-Jan-11 06:00N 47°40' W 122°23'0 0.0
2018-Jan-11 05:30N 47°40' W 122°23'0 0.0
2018-Jan-11 05:00N 47°40' W 122°23'0 0.0
2018-Jan-11 04:30N 47°40' W 122°23'0 0.0
2018-Jan-11 04:00N 47°40' W 122°23'0 0.0
2018-Jan-11 03:30N 47°40' W 122°23'0 0.0
2018-Jan-11 03:00N 47°40' W 122°23'0 0.0
2018-Jan-11 02:30N 47°40' W 122°23'0 0.0
2018-Jan-11 02:00N 47°40' W 122°23'0 0.0
2018-Jan-11 01:30N 47°40' W 122°23'0 0.0
2018-Jan-11 01:00N 47°40' W 122°23'0 0.0
2018-Jan-11 00:30N 47°40' W 122°23'0 0.0
2018-Jan-11 00:00N 47°40' W 122°23'0 0.0
2018-Jan-10 23:30N 47°40' W 122°23'0 0.0
2018-Jan-10 23:00N 47°40' W 122°23'0 0.0
2018-Jan-10 22:30N 47°40' W 122°23'0 0.0
2018-Jan-10 22:00N 47°40' W 122°23'0 0.0
2018-Jan-10 21:30N 47°40' W 122°23'0 0.0
2018-Jan-10 21:00N 47°40' W 122°23'0 0.0
2018-Jan-10 20:30N 47°40' W 122°23'0 0.0
2018-Jan-10 20:00N 47°40' W 122°23'0 0.0
2018-Jan-10 19:30N 47°40' W 122°23'0 0.0
2018-Jan-10 19:00N 47°40' W 122°23'0 0.0
2018-Jan-10 18:30N 47°40' W 122°23'0 0.0
2018-Jan-10 18:00N 47°40' W 122°23'0 0.0
2018-Jan-10 17:30N 47°40' W 122°23'0 0.0
2018-Jan-10 17:00N 47°40' W 122°23'0 0.0
2018-Jan-10 16:30N 47°40' W 122°23'0 0.0
2018-Jan-10 16:00N 47°40' W 122°23'0 0.0
2018-Jan-10 15:30N 47°40' W 122°23'0 0.0
2018-Jan-10 15:00N 47°40' W 122°23'0 0.0
2018-Jan-10 14:30N 47°40' W 122°23'0 0.0
2018-Jan-10 14:00N 47°40' W 122°23'0 0.0
2018-Jan-10 13:30N 47°40' W 122°23'0 0.0
2018-Jan-10 13:00N 47°40' W 122°23'0 0.0
2018-Jan-10 12:30N 47°40' W 122°23'0 0.0
2018-Jan-10 12:00N 47°40' W 122°23'0 0.0
2018-Jan-10 11:30N 47°40' W 122°23'0 0.0
2018-Jan-10 11:00N 47°40' W 122°23'0 0.0
2018-Jan-10 10:30N 47°40' W 122°23'0 0.0
2018-Jan-10 10:00N 47°40' W 122°23'0 0.0
2018-Jan-10 09:30N 47°40' W 122°23'0 0.0
2018-Jan-10 09:00N 47°40' W 122°23'0 0.0
2018-Jan-10 08:30N 47°40' W 122°23'0 0.0
2018-Jan-10 08:00N 47°40' W 122°23'0 0.0
2018-Jan-10 07:30N 47°40' W 122°23'0 0.0
2018-Jan-10 07:00N 47°40' W 122°23'0 0.0
2018-Jan-10 06:30N 47°40' W 122°23'0 0.0
2018-Jan-10 06:00N 47°40' W 122°23'0 0.0
2018-Jan-10 05:30N 47°40' W 122°23'0 0.0
2018-Jan-10 05:00N 47°40' W 122°23'0 0.0
2018-Jan-10 04:30N 47°40' W 122°23'0 0.0
2018-Jan-10 04:00N 47°40' W 122°23'0 0.0
2018-Jan-10 03:30N 47°40' W 122°23'0 0.0
2018-Jan-10 03:00N 47°40' W 122°23'0 0.0
2018-Jan-10 02:30N 47°40' W 122°23'0 0.0
2018-Jan-10 02:00N 47°40' W 122°23'0 0.0
2018-Jan-10 01:30N 47°40' W 122°23'0 0.0
2018-Jan-10 01:00N 47°40' W 122°23'0 0.0
2018-Jan-10 00:30N 47°40' W 122°23'0 0.0
2018-Jan-10 00:00N 47°40' W 122°23'0 0.0
2018-Jan-09 23:30N 47°40' W 122°23'0 0.0
2018-Jan-09 23:00N 47°40' W 122°23'0 0.0
2018-Jan-09 22:30N 47°40' W 122°23'0 0.0
2018-Jan-09 22:00N 47°40' W 122°23'0 0.0
2018-Jan-09 21:30N 47°40' W 122°23'0 0.0
2018-Jan-09 21:00N 47°40' W 122°23'0 0.0
2018-Jan-09 20:30N 47°40' W 122°23'0 0.0
2018-Jan-09 20:00N 47°40' W 122°23'0 0.0
2018-Jan-09 19:30N 47°40' W 122°23'0 0.0
2018-Jan-09 19:00N 47°40' W 122°23'0 0.0
2018-Jan-09 18:30N 47°40' W 122°23'0 0.0
2018-Jan-09 18:00N 47°40' W 122°23'0 0.0
2018-Jan-09 17:30N 47°40' W 122°23'0 0.0
2018-Jan-09 17:00N 47°40' W 122°23'0 0.0
2018-Jan-09 16:30N 47°40' W 122°23'0 0.0
2018-Jan-09 16:00N 47°40' W 122°23'0 0.0
2018-Jan-09 15:30N 47°40' W 122°23'0 0.0
2018-Jan-09 15:00N 47°40' W 122°23'0 0.0
2018-Jan-09 14:30N 47°40' W 122°23'0 0.0
2018-Jan-09 14:00N 47°40' W 122°23'0 0.0
2018-Jan-09 13:30N 47°40' W 122°23'0 0.0
2018-Jan-09 13:00N 47°40' W 122°23'0 0.0
2018-Jan-09 12:30N 47°40' W 122°23'0 0.0
2018-Jan-09 12:00N 47°40' W 122°23'0 0.0
2018-Jan-09 11:30N 47°40' W 122°23'0 0.0
2018-Jan-09 11:00N 47°40' W 122°23'0 0.0
2018-Jan-09 10:30N 47°40' W 122°23'0 0.0
2018-Jan-09 10:00N 47°40' W 122°23'0 0.0
2018-Jan-09 09:30N 47°40' W 122°23'0 0.0
2018-Jan-09 09:00N 47°40' W 122°23'0 0.0
2018-Jan-09 08:30N 47°40' W 122°23'0 0.0
2018-Jan-09 08:00N 47°40' W 122°23'0 0.0
2018-Jan-09 07:30N 47°40' W 122°23'0 0.0
2018-Jan-09 07:00N 47°40' W 122°23'0 0.0
2018-Jan-09 06:30N 47°40' W 122°23'0 0.0
2018-Jan-09 06:00N 47°40' W 122°23'0 0.0
2018-Jan-09 05:30N 47°40' W 122°23'0 0.0
2018-Jan-09 05:00N 47°40' W 122°23'0 0.0
2018-Jan-09 04:30N 47°40' W 122°23'0 0.0
2018-Jan-09 04:00N 47°40' W 122°23'0 0.0
2018-Jan-09 03:30N 47°40' W 122°23'0 0.0
2018-Jan-09 03:00N 47°40' W 122°23'0 0.0
2018-Jan-09 02:30N 47°40' W 122°23'0 0.0
2018-Jan-09 02:00N 47°40' W 122°23'0 0.0
2018-Jan-09 01:30N 47°40' W 122°23'0 0.0
2018-Jan-09 01:00N 47°40' W 122°23'0 0.0
2018-Jan-09 00:30N 47°40' W 122°23'0 0.0
2018-Jan-09 00:00N 47°40' W 122°23'0 0.0
2018-Jan-08 23:30N 47°40' W 122°23'0 0.0
2018-Jan-08 23:00N 47°40' W 122°23'0 0.0
2018-Jan-08 22:30N 47°40' W 122°23'0 0.0
2018-Jan-08 22:00N 47°40' W 122°23'0 0.0
2018-Jan-08 21:30N 47°40' W 122°23'0 0.0
2018-Jan-08 21:00N 47°40' W 122°23'0 0.0
2018-Jan-08 20:30N 47°40' W 122°23'0 0.0
2018-Jan-08 20:00N 47°40' W 122°23'0 0.0
2018-Jan-08 19:30N 47°40' W 122°23'0 0.0
2018-Jan-08 19:00N 47°40' W 122°23'0 0.0
2018-Jan-08 18:30N 47°40' W 122°23'0 0.0
2018-Jan-08 18:00N 47°40' W 122°23'0 0.0
2018-Jan-08 17:30N 47°40' W 122°23'0 0.0
2018-Jan-08 17:00N 47°40' W 122°23'0 0.0
2018-Jan-08 16:30N 47°40' W 122°23'0 0.0
2018-Jan-08 16:00N 47°40' W 122°23'0 0.0
2018-Jan-08 15:30N 47°40' W 122°23'0 0.0
2018-Jan-08 15:00N 47°40' W 122°23'0 0.0
2018-Jan-08 14:30N 47°40' W 122°23'0 0.0
2018-Jan-08 14:00N 47°40' W 122°23'0 0.0
2018-Jan-08 13:30N 47°40' W 122°23'0 0.0
2018-Jan-08 13:00N 47°40' W 122°23'0 0.0
2018-Jan-08 12:30N 47°40' W 122°23'0 0.0
2018-Jan-08 12:00N 47°40' W 122°23'0 0.0
2018-Jan-08 11:30N 47°40' W 122°23'0 0.0
2018-Jan-08 11:00N 47°40' W 122°23'0 0.0
2018-Jan-08 10:30N 47°40' W 122°23'0 0.0
2018-Jan-08 10:00N 47°40' W 122°23'0 0.0
2018-Jan-08 09:30N 47°40' W 122°23'0 0.0
2018-Jan-08 09:00N 47°40' W 122°23'0 0.0
2018-Jan-08 08:30N 47°40' W 122°23'0 0.0
2018-Jan-08 08:00N 47°40' W 122°23'0 0.0
2018-Jan-08 07:30N 47°40' W 122°23'0 0.0
2018-Jan-08 07:00N 47°40' W 122°23'0 0.0
2018-Jan-08 06:30N 47°40' W 122°23'0 0.0
2018-Jan-08 06:00N 47°40' W 122°23'0 0.0
2018-Jan-08 05:30N 47°40' W 122°23'0 0.0
2018-Jan-08 05:00N 47°40' W 122°23'0 0.0
2018-Jan-08 04:30N 47°40' W 122°23'0 0.0
2018-Jan-08 04:00N 47°40' W 122°23'0 0.0
2018-Jan-08 03:30N 47°40' W 122°23'0 0.0
2018-Jan-08 03:00N 47°40' W 122°23'0 0.0
2018-Jan-08 02:30N 47°40' W 122°23'0 0.0
2018-Jan-08 02:00N 47°40' W 122°23'0 0.0
2018-Jan-08 01:30N 47°40' W 122°23'0 0.0
2018-Jan-08 01:00N 47°40' W 122°23'0 0.0
2018-Jan-08 00:30N 47°40' W 122°23'0 0.0
2018-Jan-08 00:00N 47°40' W 122°23'0 0.0
2018-Jan-07 23:30N 47°40' W 122°23'0 0.0
2018-Jan-07 23:00N 47°40' W 122°23'0 0.0
2018-Jan-07 22:30N 47°40' W 122°23'0 0.0
2018-Jan-07 22:00N 47°40' W 122°23'0 0.0
2018-Jan-07 21:30N 47°40' W 122°23'0 0.0
2018-Jan-07 21:00N 47°40' W 122°23'0 0.0
2018-Jan-07 20:30N 47°40' W 122°23'0 0.0
2018-Jan-07 20:00N 47°40' W 122°23'0 0.0
2018-Jan-07 19:30N 47°40' W 122°23'0 0.0
2018-Jan-07 19:00N 47°40' W 122°23'0 0.0
2018-Jan-07 18:30N 47°40' W 122°23'0 0.0
2018-Jan-07 18:00N 47°40' W 122°23'0 0.0
2018-Jan-07 17:30N 47°40' W 122°23'0 0.0
2018-Jan-07 17:00N 47°40' W 122°23'0 0.0
2018-Jan-07 16:30N 47°40' W 122°23'0 0.0
2018-Jan-07 16:00N 47°40' W 122°23'0 0.0
2018-Jan-07 15:30N 47°40' W 122°23'0 0.0
2018-Jan-07 15:00N 47°40' W 122°23'0 0.0
2018-Jan-07 14:30N 47°40' W 122°23'0 0.0
2018-Jan-07 14:00N 47°40' W 122°23'0 0.0
2018-Jan-07 13:30N 47°40' W 122°23'0 0.0
2018-Jan-07 13:00N 47°40' W 122°23'0 0.0
2018-Jan-07 12:30N 47°40' W 122°23'0 0.0
2018-Jan-07 12:00N 47°40' W 122°23'0 0.0
2018-Jan-07 11:30N 47°40' W 122°23'0 0.0
2018-Jan-07 11:00N 47°40' W 122°23'0 0.0
2018-Jan-07 10:30N 47°40' W 122°23'0 0.0
2018-Jan-07 10:00N 47°40' W 122°23'0 0.0
2018-Jan-07 09:30N 47°40' W 122°23'0 0.0
2018-Jan-07 09:00N 47°40' W 122°23'0 0.0
2018-Jan-07 08:30N 47°40' W 122°23'0 0.0
2018-Jan-07 08:00N 47°40' W 122°23'0 0.0
2018-Jan-07 07:30N 47°40' W 122°23'0 0.0
2018-Jan-07 07:00N 47°40' W 122°23'0 0.0
2018-Jan-07 06:30N 47°40' W 122°23'0 0.0
2018-Jan-07 06:00N 47°40' W 122°23'0 0.0
2018-Jan-07 05:30N 47°40' W 122°23'0 0.0
2018-Jan-07 05:00N 47°40' W 122°23'0 0.0
2018-Jan-07 04:30N 47°40' W 122°23'0 0.0
2018-Jan-07 04:00N 47°40' W 122°23'0 0.0
2018-Jan-07 03:30N 47°40' W 122°23'0 0.0
2018-Jan-07 03:00N 47°40' W 122°23'0 0.0
2018-Jan-07 02:30N 47°40' W 122°23'0 0.0
2018-Jan-07 02:00N 47°40' W 122°23'0 0.0
2018-Jan-07 01:30N 47°40' W 122°23'0 0.0
2018-Jan-07 00:30N 47°40' W 122°23'0 0.0
2018-Jan-07 00:00N 47°40' W 122°23'0 0.0
2018-Jan-06 23:30N 47°40' W 122°23'0 0.0
2018-Jan-06 23:00N 47°40' W 122°23'0 0.0
2018-Jan-06 22:30N 47°40' W 122°23'0 0.0
2018-Jan-06 22:00N 47°40' W 122°23'0 0.0
2018-Jan-06 21:30N 47°40' W 122°23'0 0.0
2018-Jan-06 21:00N 47°40' W 122°23'0 0.0
2018-Jan-06 20:30N 47°40' W 122°23'0 0.0
2018-Jan-06 20:00N 47°40' W 122°23'0 0.0
2018-Jan-06 19:30N 47°40' W 122°23'0 0.0
2018-Jan-06 19:00N 47°40' W 122°23'0 0.0
2018-Jan-06 18:30N 47°40' W 122°23'0 0.0
2018-Jan-06 18:00N 47°40' W 122°23'0 0.0
2018-Jan-06 17:30N 47°40' W 122°23'0 0.0
2018-Jan-06 17:00N 47°40' W 122°23'0 0.0
2018-Jan-06 16:30N 47°40' W 122°23'0 0.0
2018-Jan-06 16:00N 47°40' W 122°23'0 0.0
2018-Jan-06 15:30N 47°40' W 122°23'0 0.0
2018-Jan-06 15:00N 47°40' W 122°23'0 0.0
2018-Jan-06 14:30N 47°40' W 122°23'0 0.0
2018-Jan-06 14:00N 47°40' W 122°23'0 0.0
2018-Jan-06 13:30N 47°40' W 122°23'0 0.0
2018-Jan-06 13:00N 47°40' W 122°23'0 0.0
2018-Jan-06 12:30N 47°40' W 122°23'0 0.0
2018-Jan-06 12:00N 47°40' W 122°23'0 0.0
2018-Jan-06 11:30N 47°40' W 122°23'0 0.0
2018-Jan-06 11:00N 47°40' W 122°23'0 0.0
2018-Jan-06 10:30N 47°40' W 122°23'0 0.0
2018-Jan-06 10:00N 47°40' W 122°23'0 0.0
2018-Jan-06 09:30N 47°40' W 122°23'0 0.0
2018-Jan-06 09:00N 47°40' W 122°23'0 0.0
2018-Jan-06 08:30N 47°40' W 122°23'0 0.0
2018-Jan-06 08:00N 47°40' W 122°23'0 0.0
2018-Jan-06 07:30N 47°40' W 122°23'0 0.0
2018-Jan-06 07:00N 47°40' W 122°23'0 0.0
2018-Jan-06 06:30N 47°40' W 122°23'0 0.0
2018-Jan-06 06:00N 47°40' W 122°23'0 0.0
2018-Jan-06 05:30N 47°40' W 122°23'0 0.0
2018-Jan-06 05:00N 47°40' W 122°23'0 0.0
2018-Jan-06 04:30N 47°40' W 122°23'0 0.0
2018-Jan-06 04:00N 47°40' W 122°23'0 0.0
2018-Jan-06 03:30N 47°40' W 122°23'0 0.0
2018-Jan-06 03:00N 47°40' W 122°23'0 0.0
2018-Jan-06 02:30N 47°40' W 122°23'0 0.0
2018-Jan-06 02:00N 47°40' W 122°23'0 0.0
2018-Jan-06 01:30N 47°40' W 122°23'0 0.0
2018-Jan-06 01:00N 47°40' W 122°23'0 0.0
2018-Jan-06 00:30N 47°40' W 122°23'0 0.0
2018-Jan-06 00:00N 47°40' W 122°23'0 0.0
2018-Jan-05 23:30N 47°40' W 122°23'0 0.0
2018-Jan-05 23:00N 47°40' W 122°23'0 0.0
2018-Jan-05 22:30N 47°40' W 122°23'0 0.0
2018-Jan-05 22:00N 47°40' W 122°23'0 0.0
2018-Jan-05 21:30N 47°40' W 122°23'0 0.0
2018-Jan-05 21:00N 47°40' W 122°23'0 0.0
2018-Jan-05 20:30N 47°40' W 122°23'0 0.0
2018-Jan-05 20:00N 47°40' W 122°23'0 0.3
2018-Jan-05 19:30N 47°40' W 122°23'0 0.9
2018-Jan-05 19:00N 47°40' W 122°23'0 0.0
2018-Jan-05 18:30N 47°40' W 122°23'0 0.0
2018-Jan-05 18:00N 47°40' W 122°23'0 0.0
2018-Jan-05 17:30N 47°40' W 122°23'0 0.0
2018-Jan-05 17:00N 47°40' W 122°23'0 0.0
2018-Jan-05 16:30N 47°40' W 122°23'0 0.0
2018-Jan-05 16:00N 47°40' W 122°23'0 0.0
2018-Jan-05 15:30N 47°40' W 122°23'0 0.0
2018-Jan-05 15:00N 47°40' W 122°23'0 0.0
2018-Jan-05 14:30N 47°40' W 122°23'0 0.0
2018-Jan-05 14:00N 47°40' W 122°23'0 0.0
2018-Jan-05 13:30N 47°40' W 122°23'0 0.0
2018-Jan-05 13:00N 47°40' W 122°23'0 0.0
2018-Jan-05 12:30N 47°40' W 122°23'0 0.0
2018-Jan-05 12:00N 47°40' W 122°23'0 0.0
2018-Jan-05 11:30N 47°40' W 122°23'0 0.0
2018-Jan-05 11:00N 47°40' W 122°23'0 0.0
2018-Jan-05 10:30N 47°40' W 122°23'0 0.0
2018-Jan-05 10:00N 47°40' W 122°23'0 0.0
2018-Jan-05 09:30N 47°40' W 122°23'0 0.0
2018-Jan-05 09:00N 47°40' W 122°23'0 0.0
2018-Jan-05 08:30N 47°40' W 122°23'0 0.0
2018-Jan-05 08:00N 47°40' W 122°23'0 0.0
2018-Jan-05 07:30N 47°40' W 122°23'0 0.0
2018-Jan-05 07:00N 47°40' W 122°23'0 0.0
2018-Jan-05 06:30N 47°40' W 122°23'0 0.0
2018-Jan-05 06:00N 47°40' W 122°23'0 0.0
2018-Jan-05 05:30N 47°40' W 122°23'0 0.0
2018-Jan-05 05:00N 47°40' W 122°23'0 0.0
2018-Jan-05 04:30N 47°40' W 122°23'0 0.0
2018-Jan-05 04:00N 47°40' W 122°23'0 0.0
2018-Jan-05 03:30N 47°40' W 122°23'0 0.0
2018-Jan-05 03:00N 47°40' W 122°23'0 0.0
2018-Jan-05 02:30N 47°40' W 122°23'0 0.0
2018-Jan-05 02:00N 47°40' W 122°23'0 0.0
2018-Jan-05 01:30N 47°40' W 122°23'0 0.0
2018-Jan-05 01:00N 47°40' W 122°23'0 0.6
2018-Jan-05 00:30N 47°40' W 122°23'0 0.6
2018-Jan-05 00:00N 47°39' W 122°23'0 0.0
2018-Jan-04 23:30N 47°39' W 122°23'0 0.0
2018-Jan-04 23:01N 47°39' W 122°23'0 0.1
2018-Jan-04 22:30N 47°40' W 122°23'0 0.0
2018-Jan-04 22:00N 47°40' W 122°23'0 0.0
2018-Jan-04 21:30N 47°40' W 122°23'0 0.0
2018-Jan-04 21:00N 47°40' W 122°23'0 0.0
2018-Jan-04 20:30N 47°40' W 122°23'0 0.0
2018-Jan-04 20:00N 47°40' W 122°23'0 0.0
2018-Jan-04 19:30N 47°40' W 122°23'0 0.0
2018-Jan-04 19:00N 47°40' W 122°23'0 0.0
2018-Jan-04 18:30N 47°40' W 122°23'0 0.0
2018-Jan-04 18:00N 47°40' W 122°23'0 0.0
2018-Jan-04 17:30N 47°40' W 122°23'0 0.0
2018-Jan-04 17:00N 47°40' W 122°23'0 0.0
2018-Jan-04 16:30N 47°40' W 122°23'0 0.0
2018-Jan-04 16:00N 47°40' W 122°23'0 0.0
2018-Jan-04 15:30N 47°40' W 122°23'0 0.0
2018-Jan-04 15:00N 47°40' W 122°23'0 0.0
2018-Jan-04 14:30N 47°40' W 122°23'0 0.0
2018-Jan-04 14:00N 47°40' W 122°23'0 0.0
2018-Jan-04 13:30N 47°40' W 122°23'0 0.0
2018-Jan-04 13:00N 47°40' W 122°23'0 0.0
2018-Jan-04 12:30N 47°40' W 122°23'0 0.0
2018-Jan-04 12:00N 47°40' W 122°23'0 0.0
2018-Jan-04 11:30N 47°40' W 122°23'0 0.0
2018-Jan-04 11:00N 47°40' W 122°23'0 0.0
2018-Jan-04 10:30N 47°40' W 122°23'0 0.0
2018-Jan-04 10:00N 47°40' W 122°23'0 0.0
2018-Jan-04 09:30N 47°40' W 122°23'0 0.0
2018-Jan-04 09:00N 47°40' W 122°23'0 0.0
2018-Jan-04 08:30N 47°40' W 122°23'0 0.0
2018-Jan-04 08:00N 47°40' W 122°23'0 0.0
2018-Jan-04 07:30N 47°40' W 122°23'0 0.0
2018-Jan-04 07:00N 47°40' W 122°23'0 0.0
2018-Jan-04 06:30N 47°40' W 122°23'0 0.0
2018-Jan-04 06:00N 47°40' W 122°23'0 0.0
2018-Jan-04 05:30N 47°40' W 122°23'0 0.0
2018-Jan-04 05:00N 47°40' W 122°23'0 0.0
2018-Jan-04 04:30N 47°40' W 122°23'  
Track history (hours):
 
Tides and Currents Weather Stations Pressure Air Temp Water Temp Dewpoint Dewpoint Depression Visibility Wind Speed Wind Dir Waves Ship Positions

Traveler

Owner: Traveler Fisheries LLC, Seattle, WA. More information available from US FCC via Universal Licensing System and Coast Guard Vessel Documentation Center.

Last reported at 2018-Jan-12 12:10 UTC. Time now 2018-Jun-22 05:36 UTC.
Position N 48°52' W 126°09'.
Warning: this ship's position is months out of date.

Length 36 m.

Type: Fishing. MMSI: 366401480.

Date/timePositionNaut miles runAvg speedWind from/ knotsBaromVisibWave heightAir tempDewpointWater temp
2018-Jan-12 12:10N 48°52' W 126°09'2 9.3
2018-Jan-12 11:58N 48°51' W 126°07'9 9.8
2018-Jan-12 11:02N 48°47' W 125°54'110.0
2018-Jan-12 10:54N 48°47' W 125°53'4 9.7
2018-Jan-12 10:30N 48°45' W 125°47'5 9.6
2018-Jan-12 10:00N 48°43' W 125°41'5 9.5
2018-Jan-12 09:30N 48°41' W 125°34'5 9.6
2018-Jan-12 09:00N 48°39' W 125°28'5 9.8
2018-Jan-12 08:29N 48°37' W 125°21'15 9.3
2018-Jan-12 06:50N 48°33' W 124°58'3 9.0
2018-Jan-12 06:29N 48°33' W 124°54'4 8.5
2018-Jan-12 05:59N 48°33' W 124°47'4 9.2
2018-Jan-12 05:30N 48°31' W 124°41'5 9.3
2018-Jan-12 05:00N 48°30' W 124°34'5 9.7
2018-Jan-12 04:30N 48°28' W 124°27'5 9.9
2018-Jan-12 04:00N 48°26' W 124°20'510.3
2018-Jan-12 03:30N 48°24' W 124°13'510.9
2018-Jan-12 03:00N 48°22' W 124°06'611.2
2018-Jan-12 02:30N 48°20' W 123°58'1310.9
2018-Jan-12 01:17N 48°17' W 123°38'413.1
2018-Jan-12 01:00N 48°16' W 123°33'611.7
2018-Jan-12 00:30N 48°15' W 123°24'611.4
2018-Jan-11 23:59N 48°14' W 123°16'611.0
2018-Jan-11 23:29N 48°13' W 123°07'510.3
2018-Jan-11 22:59N 48°13' W 122°60'19 9.7
2018-Jan-11 21:01N 48°01' W 122°37'210.1
2018-Jan-11 20:50N 47°60' W 122°35'310.4
2018-Jan-11 20:30N 47°57' W 122°32'5 9.3
2018-Jan-11 20:00N 47°53' W 122°28'5 9.4
2018-Jan-11 19:30N 47°49' W 122°26'4 9.0
2018-Jan-11 19:00N 47°44' W 122°25'4 7.4
2018-Jan-11 18:30N 47°40' W 122°25'1 1.7
2018-Jan-11 18:00N 47°40' W 122°24'1 1.4
2018-Jan-11 17:30N 47°40' W 122°23'0 0.0
2018-Jan-11 17:00N 47°40' W 122°23'0 0.0
2018-Jan-11 16:30N 47°40' W 122°23'0 0.0
2018-Jan-11 16:00N 47°40' W 122°23'0 0.0
2018-Jan-11 15:30N 47°40' W 122°23'0 0.0
2018-Jan-11 15:00N 47°40' W 122°23'0 0.0
2018-Jan-11 14:30N 47°40' W 122°23'0 0.0
2018-Jan-11 14:00N 47°40' W 122°23'0 0.0
2018-Jan-11 13:30N 47°40' W 122°23'0 0.0
2018-Jan-11 13:00N 47°40' W 122°23'0 0.0
2018-Jan-11 12:30N 47°40' W 122°23'0 0.0
2018-Jan-11 12:00N 47°40' W 122°23'0 0.0
2018-Jan-11 11:30N 47°40' W 122°23'0 0.0
2018-Jan-11 11:00N 47°40' W 122°23'0 0.0
2018-Jan-11 10:30N 47°40' W 122°23'0 0.0
2018-Jan-11 10:00N 47°40' W 122°23'0 0.0
2018-Jan-11 09:30N 47°40' W 122°23'0 0.0
2018-Jan-11 09:00N 47°40' W 122°23'0 0.0
2018-Jan-11 08:30N 47°40' W 122°23'0 0.0
2018-Jan-11 08:00N 47°40' W 122°23'0 0.0
2018-Jan-11 07:30N 47°40' W 122°23'0 0.0
2018-Jan-11 07:00N 47°40' W 122°23'0 0.0
2018-Jan-11 06:30N 47°40' W 122°23'0 0.0
2018-Jan-11 06:00N 47°40' W 122°23'0 0.0
2018-Jan-11 05:30N 47°40' W 122°23'0 0.0
2018-Jan-11 05:00N 47°40' W 122°23'0 0.0
2018-Jan-11 04:30N 47°40' W 122°23'0 0.0
2018-Jan-11 04:00N 47°40' W 122°23'0 0.0
2018-Jan-11 03:30N 47°40' W 122°23'0 0.0
2018-Jan-11 03:00N 47°40' W 122°23'0 0.0
2018-Jan-11 02:30N 47°40' W 122°23'0 0.0
2018-Jan-11 02:00N 47°40' W 122°23'0 0.0
2018-Jan-11 01:30N 47°40' W 122°23'0 0.0
2018-Jan-11 01:00N 47°40' W 122°23'0 0.0
2018-Jan-11 00:30N 47°40' W 122°23'0 0.0
2018-Jan-11 00:00N 47°40' W 122°23'0 0.0
2018-Jan-10 23:30N 47°40' W 122°23'0 0.0
2018-Jan-10 23:00N 47°40' W 122°23'0 0.0
2018-Jan-10 22:30N 47°40' W 122°23'0 0.0
2018-Jan-10 22:00N 47°40' W 122°23'0 0.0
2018-Jan-10 21:30N 47°40' W 122°23'0 0.0
2018-Jan-10 21:00N 47°40' W 122°23'0 0.0
2018-Jan-10 20:30N 47°40' W 122°23'0 0.0
2018-Jan-10 20:00N 47°40' W 122°23'0 0.0
2018-Jan-10 19:30N 47°40' W 122°23'0 0.0
2018-Jan-10 19:00N 47°40' W 122°23'0 0.0
2018-Jan-10 18:30N 47°40' W 122°23'0 0.0
2018-Jan-10 18:00N 47°40' W 122°23'0 0.0
2018-Jan-10 17:30N 47°40' W 122°23'0 0.0
2018-Jan-10 17:00N 47°40' W 122°23'0 0.0
2018-Jan-10 16:30N 47°40' W 122°23'0 0.0
2018-Jan-10 16:00N 47°40' W 122°23'0 0.0
2018-Jan-10 15:30N 47°40' W 122°23'0 0.0
2018-Jan-10 15:00N 47°40' W 122°23'0 0.0
2018-Jan-10 14:30N 47°40' W 122°23'0 0.0
2018-Jan-10 14:00N 47°40' W 122°23'0 0.0
2018-Jan-10 13:30N 47°40' W 122°23'0 0.0
2018-Jan-10 13:00N 47°40' W 122°23'0 0.0
2018-Jan-10 12:30N 47°40' W 122°23'0 0.0
2018-Jan-10 12:00N 47°40' W 122°23'0 0.0
2018-Jan-10 11:30N 47°40' W 122°23'0 0.0
2018-Jan-10 11:00N 47°40' W 122°23'0 0.0
2018-Jan-10 10:30N 47°40' W 122°23'0 0.0
2018-Jan-10 10:00N 47°40' W 122°23'0 0.0
2018-Jan-10 09:30N 47°40' W 122°23'0 0.0
2018-Jan-10 09:00N 47°40' W 122°23'0 0.0
2018-Jan-10 08:30N 47°40' W 122°23'0 0.0
2018-Jan-10 08:00N 47°40' W 122°23'0 0.0
2018-Jan-10 07:30N 47°40' W 122°23'0 0.0
2018-Jan-10 07:00N 47°40' W 122°23'0 0.0
2018-Jan-10 06:30N 47°40' W 122°23'0 0.0
2018-Jan-10 06:00N 47°40' W 122°23'0 0.0
2018-Jan-10 05:30N 47°40' W 122°23'0 0.0
2018-Jan-10 05:00N 47°40' W 122°23'0 0.0
2018-Jan-10 04:30N 47°40' W 122°23'0 0.0
2018-Jan-10 04:00N 47°40' W 122°23'0 0.0
2018-Jan-10 03:30N 47°40' W 122°23'0 0.0
2018-Jan-10 03:00N 47°40' W 122°23'0 0.0
2018-Jan-10 02:30N 47°40' W 122°23'0 0.0
2018-Jan-10 02:00N 47°40' W 122°23'0 0.0
2018-Jan-10 01:30N 47°40' W 122°23'0 0.0
2018-Jan-10 01:00N 47°40' W 122°23'0 0.0
2018-Jan-10 00:30N 47°40' W 122°23'0 0.0
2018-Jan-10 00:00N 47°40' W 122°23'0 0.0
2018-Jan-09 23:30N 47°40' W 122°23'0 0.0
2018-Jan-09 23:00N 47°40' W 122°23'0 0.0
2018-Jan-09 22:30N 47°40' W 122°23'0 0.0
2018-Jan-09 22:00N 47°40' W 122°23'0 0.0
2018-Jan-09 21:30N 47°40' W 122°23'0 0.0
2018-Jan-09 21:00N 47°40' W 122°23'0 0.0
2018-Jan-09 20:30N 47°40' W 122°23'0 0.0
2018-Jan-09 20:00N 47°40' W 122°23'0 0.0
2018-Jan-09 19:30N 47°40' W 122°23'0 0.0
2018-Jan-09 19:00N 47°40' W 122°23'0 0.0
2018-Jan-09 18:30N 47°40' W 122°23'0 0.0
2018-Jan-09 18:00N 47°40' W 122°23'0 0.0
2018-Jan-09 17:30N 47°40' W 122°23'0 0.0
2018-Jan-09 17:00N 47°40' W 122°23'0 0.0
2018-Jan-09 16:30N 47°40' W 122°23'0 0.0
2018-Jan-09 16:00N 47°40' W 122°23'0 0.0
2018-Jan-09 15:30N 47°40' W 122°23'0 0.0
2018-Jan-09 15:00N 47°40' W 122°23'0 0.0
2018-Jan-09 14:30N 47°40' W 122°23'0 0.0
2018-Jan-09 14:00N 47°40' W 122°23'0 0.0
2018-Jan-09 13:30N 47°40' W 122°23'0 0.0
2018-Jan-09 13:00N 47°40' W 122°23'0 0.0
2018-Jan-09 12:30N 47°40' W 122°23'0 0.0
2018-Jan-09 12:00N 47°40' W 122°23'0 0.0
2018-Jan-09 11:30N 47°40' W 122°23'0 0.0
2018-Jan-09 11:00N 47°40' W 122°23'0 0.0
2018-Jan-09 10:30N 47°40' W 122°23'0 0.0
2018-Jan-09 10:00N 47°40' W 122°23'0 0.0
2018-Jan-09 09:30N 47°40' W 122°23'0 0.0
2018-Jan-09 09:00N 47°40' W 122°23'0 0.0
2018-Jan-09 08:30N 47°40' W 122°23'0 0.0
2018-Jan-09 08:00N 47°40' W 122°23'0 0.0
2018-Jan-09 07:30N 47°40' W 122°23'0 0.0
2018-Jan-09 07:00N 47°40' W 122°23'0 0.0
2018-Jan-09 06:30N 47°40' W 122°23'0 0.0
2018-Jan-09 06:00N 47°40' W 122°23'0 0.0
2018-Jan-09 05:30N 47°40' W 122°23'0 0.0
2018-Jan-09 05:00N 47°40' W 122°23'0 0.0
2018-Jan-09 04:30N 47°40' W 122°23'0 0.0
2018-Jan-09 04:00N 47°40' W 122°23'0 0.0
2018-Jan-09 03:30N 47°40' W 122°23'0 0.0
2018-Jan-09 03:00N 47°40' W 122°23'0 0.0
2018-Jan-09 02:30N 47°40' W 122°23'0 0.0
2018-Jan-09 02:00N 47°40' W 122°23'0 0.0
2018-Jan-09 01:30N 47°40' W 122°23'0 0.0
2018-Jan-09 01:00N 47°40' W 122°23'0 0.0
2018-Jan-09 00:30N 47°40' W 122°23'0 0.0
2018-Jan-09 00:00N 47°40' W 122°23'0 0.0
2018-Jan-08 23:30N 47°40' W 122°23'0 0.0
2018-Jan-08 23:00N 47°40' W 122°23'0 0.0
2018-Jan-08 22:30N 47°40' W 122°23'0 0.0
2018-Jan-08 22:00N 47°40' W 122°23'0 0.0
2018-Jan-08 21:30N 47°40' W 122°23'0 0.0
2018-Jan-08 21:00N 47°40' W 122°23'0 0.0
2018-Jan-08 20:30N 47°40' W 122°23'0 0.0
2018-Jan-08 20:00N 47°40' W 122°23'0 0.0
2018-Jan-08 19:30N 47°40' W 122°23'0 0.0
2018-Jan-08 19:00N 47°40' W 122°23'0 0.0
2018-Jan-08 18:30N 47°40' W 122°23'0 0.0
2018-Jan-08 18:00N 47°40' W 122°23'0 0.0
2018-Jan-08 17:30N 47°40' W 122°23'0 0.0
2018-Jan-08 17:00N 47°40' W 122°23'0 0.0
2018-Jan-08 16:30N 47°40' W 122°23'0 0.0
2018-Jan-08 16:00N 47°40' W 122°23'0 0.0
2018-Jan-08 15:30N 47°40' W 122°23'0 0.0
2018-Jan-08 15:00N 47°40' W 122°23'0 0.0
2018-Jan-08 14:30N 47°40' W 122°23'0 0.0
2018-Jan-08 14:00N 47°40' W 122°23'0 0.0
2018-Jan-08 13:30N 47°40' W 122°23'0 0.0
2018-Jan-08 13:00N 47°40' W 122°23'0 0.0
2018-Jan-08 12:30N 47°40' W 122°23'0 0.0
2018-Jan-08 12:00N 47°40' W 122°23'0 0.0
2018-Jan-08 11:30N 47°40' W 122°23'0 0.0
2018-Jan-08 11:00N 47°40' W 122°23'0 0.0
2018-Jan-08 10:30N 47°40' W 122°23'0 0.0
2018-Jan-08 10:00N 47°40' W 122°23'0 0.0
2018-Jan-08 09:30N 47°40' W 122°23'0 0.0
2018-Jan-08 09:00N 47°40' W 122°23'0 0.0
2018-Jan-08 08:30N 47°40' W 122°23'0 0.0
2018-Jan-08 08:00N 47°40' W 122°23'0 0.0
2018-Jan-08 07:30N 47°40' W 122°23'0 0.0
2018-Jan-08 07:00N 47°40' W 122°23'0 0.0
2018-Jan-08 06:30N 47°40' W 122°23'0 0.0
2018-Jan-08 06:00N 47°40' W 122°23'0 0.0
2018-Jan-08 05:30N 47°40' W 122°23'0 0.0
2018-Jan-08 05:00N 47°40' W 122°23'0 0.0
2018-Jan-08 04:30N 47°40' W 122°23'0 0.0
2018-Jan-08 04:00N 47°40' W 122°23'0 0.0
2018-Jan-08 03:30N 47°40' W 122°23'0 0.0
2018-Jan-08 03:00N 47°40' W 122°23'0 0.0
2018-Jan-08 02:30N 47°40' W 122°23'0 0.0
2018-Jan-08 02:00N 47°40' W 122°23'0 0.0
2018-Jan-08 01:30N 47°40' W 122°23'0 0.0
2018-Jan-08 01:00N 47°40' W 122°23'0 0.0
2018-Jan-08 00:30N 47°40' W 122°23'0 0.0
2018-Jan-08 00:00N 47°40' W 122°23'0 0.0
2018-Jan-07 23:30N 47°40' W 122°23'0 0.0
2018-Jan-07 23:00N 47°40' W 122°23'0 0.0
2018-Jan-07 22:30N 47°40' W 122°23'0 0.0
2018-Jan-07 22:00N 47°40' W 122°23'0 0.0
2018-Jan-07 21:30N 47°40' W 122°23'0 0.0
2018-Jan-07 21:00N 47°40' W 122°23'0 0.0
2018-Jan-07 20:30N 47°40' W 122°23'0 0.0
2018-Jan-07 20:00N 47°40' W 122°23'0 0.0
2018-Jan-07 19:30N 47°40' W 122°23'0 0.0
2018-Jan-07 19:00N 47°40' W 122°23'0 0.0
2018-Jan-07 18:30N 47°40' W 122°23'0 0.0
2018-Jan-07 18:00N 47°40' W 122°23'0 0.0
2018-Jan-07 17:30N 47°40' W 122°23'0 0.0
2018-Jan-07 17:00N 47°40' W 122°23'0 0.0
2018-Jan-07 16:30N 47°40' W 122°23'0 0.0
2018-Jan-07 16:00N 47°40' W 122°23'0 0.0
2018-Jan-07 15:30N 47°40' W 122°23'0 0.0
2018-Jan-07 15:00N 47°40' W 122°23'0 0.0
2018-Jan-07 14:30N 47°40' W 122°23'0 0.0
2018-Jan-07 14:00N 47°40' W 122°23'0 0.0
2018-Jan-07 13:30N 47°40' W 122°23'0 0.0
2018-Jan-07 13:00N 47°40' W 122°23'0 0.0
2018-Jan-07 12:30N 47°40' W 122°23'0 0.0
2018-Jan-07 12:00N 47°40' W 122°23'0 0.0
2018-Jan-07 11:30N 47°40' W 122°23'0 0.0
2018-Jan-07 11:00N 47°40' W 122°23'0 0.0
2018-Jan-07 10:30N 47°40' W 122°23'0 0.0
2018-Jan-07 10:00N 47°40' W 122°23'0 0.0
2018-Jan-07 09:30N 47°40' W 122°23'0 0.0
2018-Jan-07 09:00N 47°40' W 122°23'0 0.0
2018-Jan-07 08:30N 47°40' W 122°23'0 0.0
2018-Jan-07 08:00N 47°40' W 122°23'0 0.0
2018-Jan-07 07:30N 47°40' W 122°23'0 0.0
2018-Jan-07 07:00N 47°40' W 122°23'0 0.0
2018-Jan-07 06:30N 47°40' W 122°23'0 0.0
2018-Jan-07 06:00N 47°40' W 122°23'0 0.0
2018-Jan-07 05:30N 47°40' W 122°23'0 0.0
2018-Jan-07 05:00N 47°40' W 122°23'0 0.0
2018-Jan-07 04:30N 47°40' W 122°23'0 0.0
2018-Jan-07 04:00N 47°40' W 122°23'0 0.0
2018-Jan-07 03:30N 47°40' W 122°23'0 0.0
2018-Jan-07 03:00N 47°40' W 122°23'0 0.0
2018-Jan-07 02:30N 47°40' W 122°23'0 0.0
2018-Jan-07 02:00N 47°40' W 122°23'0 0.0
2018-Jan-07 01:30N 47°40' W 122°23'0 0.0
2018-Jan-07 00:30N 47°40' W 122°23'0 0.0
2018-Jan-07 00:00N 47°40' W 122°23'0 0.0
2018-Jan-06 23:30N 47°40' W 122°23'0 0.0
2018-Jan-06 23:00N 47°40' W 122°23'0 0.0
2018-Jan-06 22:30N 47°40' W 122°23'0 0.0
2018-Jan-06 22:00N 47°40' W 122°23'0 0.0
2018-Jan-06 21:30N 47°40' W 122°23'0 0.0
2018-Jan-06 21:00N 47°40' W 122°23'0 0.0
2018-Jan-06 20:30N 47°40' W 122°23'0 0.0
2018-Jan-06 20:00N 47°40' W 122°23'0 0.0
2018-Jan-06 19:30N 47°40' W 122°23'0 0.0
2018-Jan-06 19:00N 47°40' W 122°23'0 0.0
2018-Jan-06 18:30N 47°40' W 122°23'0 0.0
2018-Jan-06 18:00N 47°40' W 122°23'0 0.0
2018-Jan-06 17:30N 47°40' W 122°23'0 0.0
2018-Jan-06 17:00N 47°40' W 122°23'0 0.0
2018-Jan-06 16:30N 47°40' W 122°23'0 0.0
2018-Jan-06 16:00N 47°40' W 122°23'0 0.0
2018-Jan-06 15:30N 47°40' W 122°23'0 0.0
2018-Jan-06 15:00N 47°40' W 122°23'0 0.0
2018-Jan-06 14:30N 47°40' W 122°23'0 0.0
2018-Jan-06 14:00N 47°40' W 122°23'0 0.0
2018-Jan-06 13:30N 47°40' W 122°23'0 0.0
2018-Jan-06 13:00N 47°40' W 122°23'0 0.0
2018-Jan-06 12:30N 47°40' W 122°23'0 0.0
2018-Jan-06 12:00N 47°40' W 122°23'0 0.0
2018-Jan-06 11:30N 47°40' W 122°23'0 0.0
2018-Jan-06 11:00N 47°40' W 122°23'0 0.0
2018-Jan-06 10:30N 47°40' W 122°23'0 0.0
2018-Jan-06 10:00N 47°40' W 122°23'0 0.0
2018-Jan-06 09:30N 47°40' W 122°23'0 0.0
2018-Jan-06 09:00N 47°40' W 122°23'0 0.0
2018-Jan-06 08:30N 47°40' W 122°23'0 0.0
2018-Jan-06 08:00N 47°40' W 122°23'0 0.0
2018-Jan-06 07:30N 47°40' W 122°23'0 0.0
2018-Jan-06 07:00N 47°40' W 122°23'0 0.0
2018-Jan-06 06:30N 47°40' W 122°23'0 0.0
2018-Jan-06 06:00N 47°40' W 122°23'0 0.0
2018-Jan-06 05:30N 47°40' W 122°23'0 0.0
2018-Jan-06 05:00N 47°40' W 122°23'0 0.0
2018-Jan-06 04:30N 47°40' W 122°23'0 0.0
2018-Jan-06 04:00N 47°40' W 122°23'0 0.0
2018-Jan-06 03:30N 47°40' W 122°23'0 0.0
2018-Jan-06 03:00N 47°40' W 122°23'0 0.0
2018-Jan-06 02:30N 47°40' W 122°23'0 0.0
2018-Jan-06 02:00N 47°40' W 122°23'0 0.0
2018-Jan-06 01:30N 47°40' W 122°23'0 0.0
2018-Jan-06 01:00N 47°40' W 122°23'0 0.0
2018-Jan-06 00:30N 47°40' W 122°23'0 0.0
2018-Jan-06 00:00N 47°40' W 122°23'0 0.0
2018-Jan-05 23:30N 47°40' W 122°23'0 0.0
2018-Jan-05 23:00N 47°40' W 122°23'0 0.0
2018-Jan-05 22:30N 47°40' W 122°23'0 0.0
2018-Jan-05 22:00N 47°40' W 122°23'0 0.0
2018-Jan-05 21:30N 47°40' W 122°23'0 0.0
2018-Jan-05 21:00N 47°40' W 122°23'0 0.0
2018-Jan-05 20:30N 47°40' W 122°23'0 0.0
2018-Jan-05 20:00N 47°40' W 122°23'0 0.3
2018-Jan-05 19:30N 47°40' W 122°23'0 0.9
2018-Jan-05 19:00N 47°40' W 122°23'0 0.0
2018-Jan-05 18:30N 47°40' W 122°23'0 0.0
2018-Jan-05 18:00N 47°40' W 122°23'0 0.0
2018-Jan-05 17:30N 47°40' W 122°23'0 0.0
2018-Jan-05 17:00N 47°40' W 122°23'0 0.0
2018-Jan-05 16:30N 47°40' W 122°23'0 0.0
2018-Jan-05 16:00N 47°40' W 122°23'0 0.0
2018-Jan-05 15:30N 47°40' W 122°23'0 0.0
2018-Jan-05 15:00N 47°40' W 122°23'0 0.0
2018-Jan-05 14:30N 47°40' W 122°23'0 0.0
2018-Jan-05 14:00N 47°40' W 122°23'0 0.0
2018-Jan-05 13:30N 47°40' W 122°23'0 0.0
2018-Jan-05 13:00N 47°40' W 122°23'0 0.0
2018-Jan-05 12:30N 47°40' W 122°23'0 0.0
2018-Jan-05 12:00N 47°40' W 122°23'0 0.0
2018-Jan-05 11:30N 47°40' W 122°23'0 0.0
2018-Jan-05 11:00N 47°40' W 122°23'0 0.0
2018-Jan-05 10:30N 47°40' W 122°23'0 0.0
2018-Jan-05 10:00N 47°40' W 122°23'0 0.0
2018-Jan-05 09:30N 47°40' W 122°23'0 0.0
2018-Jan-05 09:00N 47°40' W 122°23'0 0.0
2018-Jan-05 08:30N 47°40' W 122°23'0 0.0
2018-Jan-05 08:00N 47°40' W 122°23'0 0.0
2018-Jan-05 07:30N 47°40' W 122°23'0 0.0
2018-Jan-05 07:00N 47°40' W 122°23'0 0.0
2018-Jan-05 06:30N 47°40' W 122°23'0 0.0
2018-Jan-05 06:00N 47°40' W 122°23'0 0.0
2018-Jan-05 05:30N 47°40' W 122°23'0 0.0
2018-Jan-05 05:00N 47°40' W 122°23'0 0.0
2018-Jan-05 04:30N 47°40' W 122°23'0 0.0
2018-Jan-05 04:00N 47°40' W 122°23'0 0.0
2018-Jan-05 03:30N 47°40' W 122°23'0 0.0
2018-Jan-05 03:00N 47°40' W 122°23'0 0.0
2018-Jan-05 02:30N 47°40' W 122°23'0 0.0
2018-Jan-05 02:00N 47°40' W 122°23'0 0.0
2018-Jan-05 01:30N 47°40' W 122°23'0 0.0
2018-Jan-05 01:00N 47°40' W 122°23'0 0.6
2018-Jan-05 00:30N 47°40' W 122°23'0 0.6
2018-Jan-05 00:00N 47°39' W 122°23'0 0.0
2018-Jan-04 23:30N 47°39' W 122°23'0 0.0
2018-Jan-04 23:01N 47°39' W 122°23'0 0.1
2018-Jan-04 22:30N 47°40' W 122°23'0 0.0
2018-Jan-04 22:00N 47°40' W 122°23'0 0.0
2018-Jan-04 21:30N 47°40' W 122°23'0 0.0
2018-Jan-04 21:00N 47°40' W 122°23'0 0.0
2018-Jan-04 20:30N 47°40' W 122°23'0 0.0
2018-Jan-04 20:00N 47°40' W 122°23'0 0.0
2018-Jan-04 19:30N 47°40' W 122°23'0 0.0
2018-Jan-04 19:00N 47°40' W 122°23'0 0.0
2018-Jan-04 18:30N 47°40' W 122°23'0 0.0
2018-Jan-04 18:00N 47°40' W 122°23'0 0.0
2018-Jan-04 17:30N 47°40' W 122°23'0 0.0
2018-Jan-04 17:00N 47°40' W 122°23'0 0.0
2018-Jan-04 16:30N 47°40' W 122°23'0 0.0
2018-Jan-04 16:00N 47°40' W 122°23'0 0.0
2018-Jan-04 15:30N 47°40' W 122°23'0 0.0
2018-Jan-04 15:00N 47°40' W 122°23'0 0.0
2018-Jan-04 14:30N 47°40' W 122°23'0 0.0
2018-Jan-04 14:00N 47°40' W 122°23'0 0.0
2018-Jan-04 13:30N 47°40' W 122°23'0 0.0
2018-Jan-04 13:00N 47°40' W 122°23'0 0.0
2018-Jan-04 12:30N 47°40' W 122°23'0 0.0
2018-Jan-04 12:00N 47°40' W 122°23'0 0.0
2018-Jan-04 11:30N 47°40' W 122°23'0 0.0
2018-Jan-04 11:00N 47°40' W 122°23'0 0.0
2018-Jan-04 10:30N 47°40' W 122°23'0 0.0
2018-Jan-04 10:00N 47°40' W 122°23'0 0.0
2018-Jan-04 09:30N 47°40' W 122°23'0 0.0
2018-Jan-04 09:00N 47°40' W 122°23'0 0.0
2018-Jan-04 08:30N 47°40' W 122°23'0 0.0
2018-Jan-04 08:00N 47°40' W 122°23'0 0.0
2018-Jan-04 07:30N 47°40' W 122°23'0 0.0
2018-Jan-04 07:00N 47°40' W 122°23'0 0.0
2018-Jan-04 06:30N 47°40' W 122°23'0 0.0
2018-Jan-04 06:00N 47°40' W 122°23'0 0.0
2018-Jan-04 05:30N 47°40' W 122°23'0 0.0
2018-Jan-04 05:00N 47°40' W 122°23'0 0.0
2018-Jan-04 04:30N 47°40' W 122°23'  

Dump ship's entire track history